createdAt,value
2018-08-16T00:12:16.455Z,82.03
2018-08-16T00:27:50.899Z,81.63
2018-08-16T00:43:25.319Z,81.96
2018-08-16T00:58:59.623Z,84.00
2018-08-16T01:14:33.543Z,83.19
2018-08-16T01:30:08.424Z,83.43
2018-08-16T01:45:42.926Z,83.36
2018-08-16T02:01:17.585Z,84.04
2018-08-16T02:16:51.986Z,84.20
2018-08-16T02:32:26.703Z,85.50
2018-08-16T02:48:01.014Z,87.92
2018-08-16T03:03:35.430Z,88.45
2018-08-16T03:19:08.759Z,90.00
2018-08-16T03:34:43.405Z,91.21
2018-08-16T03:50:17.708Z,91.09
2018-08-16T04:05:52.541Z,86.76
2018-08-16T04:21:26.777Z,85.16
2018-08-16T04:37:00.654Z,86.02
2018-08-16T04:52:35.233Z,80.96
2018-08-16T05:08:10.008Z,65.88
2018-08-16T05:23:44.554Z,61.35
2018-08-16T05:39:19.779Z,53.85
2018-08-16T05:54:53.176Z,50.86
2018-08-16T06:10:27.738Z,50.81
2018-08-16T06:26:02.244Z,47.98
2018-08-16T06:41:36.708Z,44.19
2018-08-16T06:57:10.986Z,37.51
2018-08-16T07:12:45.705Z,34.25
2018-08-16T07:28:19.930Z,35.38
2018-08-16T07:43:54.166Z,37.93
2018-08-16T07:59:28.875Z,35.15
2018-08-16T08:15:02.241Z,34.94
2018-08-16T08:30:38.967Z,34.79
2018-08-16T08:46:13.679Z,36.84
2018-08-16T09:01:48.654Z,38.38
2018-08-16T09:17:23.066Z,34.65
2018-08-16T09:33:09.754Z,34.80
2018-08-16T09:48:59.368Z,35.68
2018-08-16T10:04:34.102Z,32.88
2018-08-16T10:20:08.533Z,32.21
2018-08-16T10:35:42.947Z,28.48
2018-08-16T10:51:17.451Z,30.80
2018-08-16T11:06:50.722Z,29.68
2018-08-16T11:22:24.281Z,34.51
2018-08-16T11:37:58.763Z,33.72
2018-08-16T11:53:32.787Z,34.29
2018-08-16T12:09:07.227Z,35.99
2018-08-16T12:24:49.831Z,35.88
2018-08-16T12:40:24.125Z,34.81
2018-08-16T12:55:58.376Z,35.29
2018-08-16T13:11:32.628Z,37.41
2018-08-16T13:27:07.043Z,38.46
2018-08-16T13:42:40.740Z,37.32
2018-08-16T13:58:15.138Z,39.49
2018-08-16T14:13:48.726Z,38.99
2018-08-16T14:29:22.565Z,38.49
2018-08-16T14:44:56.900Z,41.11
2018-08-16T15:00:31.603Z,39.79
2018-08-16T15:16:06.495Z,41.38
2018-08-16T15:31:39.935Z,42.48
2018-08-16T15:47:14.152Z,44.43
2018-08-16T16:02:49.834Z,44.28
2018-08-16T16:18:24.391Z,44.96
2018-08-16T16:33:58.993Z,44.77
2018-08-16T16:49:33.195Z,47.63
2018-08-16T17:05:07.411Z,48.46
2018-08-16T17:20:41.747Z,49.93
2018-08-16T17:36:16.376Z,52.05
2018-08-16T17:51:50.788Z,51.73
2018-08-16T18:07:25.198Z,52.62
2018-08-16T18:22:59.671Z,52.33
2018-08-16T18:38:33.768Z,52.63
2018-08-16T18:54:07.054Z,51.38
2018-08-16T19:09:41.622Z,52.02
2018-08-16T19:25:15.976Z,50.97
2018-08-16T19:40:50.862Z,50.25
2018-08-16T19:56:24.949Z,50.18
2018-08-16T20:12:00.174Z,48.93
2018-08-16T20:27:34.427Z,49.37
2018-08-16T20:43:08.170Z,49.21
2018-08-16T20:58:42.643Z,48.72
2018-08-16T21:14:17.269Z,48.57
2018-08-16T21:29:51.647Z,49.31
2018-08-16T21:45:26.190Z,50.12
2018-08-16T22:01:08.885Z,52.02
2018-08-16T22:16:43.495Z,57.41
2018-08-16T22:32:18.219Z,60.83
2018-08-16T22:47:52.364Z,61.85
2018-08-16T23:03:26.306Z,61.04
2018-08-16T23:19:00.932Z,61.75
2018-08-16T23:34:35.314Z,66.44
2018-08-16T23:50:09.405Z,70.42
